Welcome to our Virtual Airline
Sign-in:

Flight MFC51291

  • Submitted By: Brad Allen
  • Departure Airport: Shishmaref (PASH)
  • Arrival Airport: Port Clarence CGS (KPC)
  • Aircraft: K100 (N490MM)
  • Flight Time: 00.41.16
  • Date Submitted: 2019/07/16
  • Route: STOP-OVER AT 1. TIN CITY LRRS (PATC), 2. BREVIG MISSION (KTS)
  • Status: Accepted
Flight Details
Gross Revenue:
(6 load / $ 132.00 per unit
$ 792.00
Fuel Cost:
(119.295 fuel used @ 5.1 / unit)
$ 608.40

Additional Log Information:

View Log

FS[11:46] ----- Flight Opened -----
FS[11:46] Cigar Box - 1.1.4.0
FS[11:46] FS: Prepar3D V4
FS[11:46] FSUIPC: v5.15
FS[11:46] Flight Number: MFC51291
FS[11:46] FS Aircraft: Kodiak Cargo N498KQ
FS[11:46] FS Model: Kodiak
FS[11:46] FS Type: Quest
FS[11:46] Departure: PASH
FS[11:46] Arrival: KPC
FS[11:46] Flight Level: 2500
FS[11:46] Flight Type: H
FS[11:46] Passengers: 6
FS[11:46] FOB: 2144 lbs
FS[11:46] Gate: 2 - PASH
FS[11:46] NOTE: Parking Brake Ignored
FS[11:46] Crash Detection: Disabled
FS[11:46] Engines: 1 Turboprop
FS[11:46] NOTE: Boarding has started
FS[11:46] Parking Brake: Engaged
FS[11:46] Main Door Closed
FS[11:46] COM1: 123.00
FS[11:46] COM2: 127.80
FS[11:46] Transponder: 0712
FS[11:46] NAV1: 113.70
FS[11:46] NAV2: 110.60
FS[11:46] ADF1: 284.0
FS[11:46] ADF2: 240.0
FS[11:46] Navigation Mode: GPS
FS[11:46] Navigation Mode: GPS
FS[11:46] FS: Paused
FS[11:46] Parking Brake: Released
FS[11:46] FS: Unpaused
FS[11:46] Parking Brake: Engaged
FS[11:46] Parking Brake: Released
FS[11:46] Parking Brake: Engaged
FS[11:46] Engine 1: Started
FS[11:46] Parking Brake: Released
FS[11:47] NOTE: Taxi started
FS[11:48] Flaps: Position 1
FS[11:48] Flaps: Position 2
FS[11:48] NOTE: ----- TAKE OFF -----
FS[11:48] GS: 91 knots
FS[11:48] TAS: 102 knots
FS[11:48] IAS: 102 knots
FS[11:48] VS: 3 fpm
FS[11:48] FOB: 2138 lbs
FS[11:48] Heading: 243°
FS[11:48] Pitch: 1°
FS[11:48] Bank: 0°
FS[11:48] Aircraft Weight: 5828.27 lbs
FS[11:48] Nearest Airport: PASH
FS[11:48] Distance: 0.15 miles
FS[11:48] Runway: ???
FS[11:48] Ground Surface: Asphalt
FS[11:48] Ground Condition: Normal
FS[11:48] NOTE: Weather Report
FS[11:48] Wind Heading: 225°
FS[11:48] Wind Speed: 11 knots
FS[11:48] OAT: 16° C
FS[11:48] TAT: 18° C
FS[11:48] Precipitation: None
FS[11:48] Dew Point: 9° C
FS[11:48] Visibility: 7 miles
FS[11:48] METAR: PASH 161956Z AUTO 24011KT 8SM CLR 17/09 A2962 RMK AO2 SLP033 T01670094
FS[11:48] NOTE: Climb started
FS[11:48] Flaps: Position 1
FS[11:48] GS: 101 knots
FS[11:48] TAS: 112 knots
FS[11:48] IAS: 112 knots
FS[11:48] VS: 400 fpm
FS[11:48] Flaps: Position 0
FS[11:48] GS: 108 knots
FS[11:48] TAS: 120 knots
FS[11:48] IAS: 119 knots
FS[11:48] VS: 256 fpm
FS[11:48] Autopilot: Engaged
FS[11:48] AGL: 56 ft
FS[11:48] AMSL: 65 ft
FS[11:48] View Mode: Virtual Cockpit
FS[11:50] NOTE: TOC reached
FS[11:50] NOTE: Cruise started
FS[11:50] GS: 165 knots
FS[11:50] TAS: 176 knots
FS[11:50] IAS: 171 knots
FS[11:50] VS: 189 fpm
FS[11:50] FOB: 2116 lbs
FS[11:50] Heading: 215°
FS[11:50] Pitch: 0°
FS[11:50] Bank: 0°
FS[11:50] Aircraft Weight: 5806.45 lbs
FS[11:52] NOTE: TOD reached
FS[11:52] NOTE: Descent started
FS[11:52] GS: 176 knots
FS[11:52] TAS: 187 knots
FS[11:52] IAS: 181 knots
FS[11:52] VS: -415 fpm
FS[11:52] FOB: 2100 lbs
FS[11:52] Heading: 214°
FS[11:52] Pitch: 0°
FS[11:52] Bank: 1°
FS[11:52] Aircraft Weight: 5790.36 lbs
FS[11:52] NOTE: On approach
FS[12:04] Recovery: Flight Saved
FS[12:22] COM1: 122.90
FS[12:23] Autopilot: Disengaged
FS[12:23] AGL: 488 ft
FS[12:23] AMSL: 488 ft
FS[12:23] Flaps: Position 1
FS[12:23] GS: 95 knots
FS[12:23] TAS: 92 knots
FS[12:23] IAS: 92 knots
FS[12:23] VS: 472 fpm
FS[12:23] Stall: Encountered
FS[12:23] GS: 71 knots
FS[12:23] TAS: 69 knots
FS[12:23] IAS: 69 knots
FS[12:23] VS: -826 fpm
FS[12:23] Stall: Corrected
FS[12:23] GS: 89 knots
FS[12:23] TAS: 93 knots
FS[12:23] IAS: 92 knots
FS[12:23] VS: -735 fpm
FS[12:24] Flaps: Position 2
FS[12:24] GS: 97 knots
FS[12:24] TAS: 105 knots
FS[12:24] IAS: 104 knots
FS[12:24] VS: 481 fpm
FS[12:24] Flaps: Position 3
FS[12:24] GS: 89 knots
FS[12:24] TAS: 99 knots
FS[12:24] IAS: 98 knots
FS[12:24] VS: -741 fpm
FS[12:24] Flaps: Position 2
FS[12:24] GS: 75 knots
FS[12:24] TAS: 82 knots
FS[12:24] IAS: 81 knots
FS[12:24] VS: -1438 fpm
FS[12:24] NOTE: ----- LANDED -----
FS[12:24] Landing Rate: -140.72 fpm
FS[12:24] GS: 75 knots
FS[12:24] TAS: 80 knots
FS[12:24] IAS: 80 knots
FS[12:24] VS: -138 fpm
FS[12:24] FOB: 1889 lbs
FS[12:24] Heading: 169°
FS[12:24] Pitch: 7°
FS[12:24] Bank: -1°
FS[12:24] Aircraft Weight: 5579.27 lbs
FS[12:24] Nearest Airport: KPC
FS[12:24] Distance: 0.23 miles
FS[12:24] Runway: 16 - KPC
FS[12:24] Ground Surface: Asphalt
FS[12:24] Ground Condition: Normal
FS[12:24] NOTE: Weather Report
FS[12:24] Wind Heading: 224°
FS[12:24] Wind Speed: 7 knots
FS[12:24] OAT: 12° C
FS[12:24] TAT: 13° C
FS[12:24] Precipitation: None
FS[12:24] Dew Point: 6° C
FS[12:24] Visibility: 14 miles
FS[12:24] METAR: KPCD 162055Z AUTO 00000KT 10SM SCT090 26/24 A2986 RMK AO2 LTG DSNT NE AND NW T02620238KPCM 162055Z AUTO 10SM SCT050 A3009 RMK AO2KPCW 162055Z AUTO 22004KT 10SM FEW041 28/24 A2993 RMK AO2 P0008KPCZ 162055Z AUTO 30004KT 10SM SCT042 SCT050 33/20 A2984 RMK AO2 T03270204
FS[12:24] View Mode: Virtual Cockpit
FS[12:25] Flaps: Position 3
FS[12:25] Flaps: Position 2
FS[12:25] NOTE: Taxi started
FS[12:25] Flaps: Position 1
FS[12:25] Flaps: Position 0
FS[12:27] Engine 1: Stopped
FS[12:27] NOTE: Arrived
FS[12:27] Parking Brake: Engaged
FS[12:27] Gate: 1 - KPC
FS[12:27] NOTE: Flight Completed
FS[12:27] FS Aircraft: Kodiak Cargo N498KQ
FS[12:27] FS Model: Kodiak
FS[12:27] FS Type: Quest
FS[12:27] FOB: 1881 lbs
FS[12:27] Fuel Used: 263 lbs
FS[12:27] Flight Time: 00:41:16
FS[12:27] Flight Time (Dawn): 00:00:00
FS[12:27] Flight Time (Day): 00:41:16
FS[12:27] Flight Time (Dusk): 00:00:00
FS[12:27] Flight Time (Night): 00:00:00
FS[12:27] Total Landings: 1
FS[12:27] MaxSim Rate: 1x
FS[12:27] Cigar Box - 1.1.4.0
FS[12:27] ----- Flight Closed -----

Route Map